Time;durP1;ratioP1;P1;durP2;ratioP2;P2;SDS_P1;SDS_P2;PMS_P1;PMS_P2;Temp;Humidity;BMP_temperature;BMP_pressure;BME280_temperature;BME280_humidity;BME280_pressure;Samples;Min_cycle;Max_cycle;Signal;HPM_P1;HPM_P2
2023/08/20 00:01:05;;;;;;;276.30;182.23;;;;;;;;;;5071759;28;20889;-52
2023/08/20 00:03:31;;;;;;;282.60;190.40;;;;;;;;;;5071646;28;20877;-52
2023/08/20 00:05:57;;;;;;;266.83;167.60;;;;;;;;;;5071630;28;20451;-52
2023/08/20 00:08:23;;;;;;;283.07;194.10;;;;;;;;;;5071609;28;20419;-52
2023/08/20 00:10:49;;;;;;;279.93;179.20;;;;;;;;;;5071437;28;20885;-52
2023/08/20 00:13:15;;;;;;;283.73;196.90;;;;;;;;;;5071520;28;20932;-54
2023/08/20 00:15:41;;;;;;;281.00;187.53;;;;;;;;;;5071544;28;20396;-52
2023/08/20 00:18:07;;;;;;;278.30;179.97;;;;;;;;;;5071642;28;20476;-51
2023/08/20 00:20:33;;;;;;;276.37;181.27;;;;;;;;;;5071250;28;20414;-52
2023/08/20 00:22:59;;;;;;;278.57;179.03;;;;;;;;;;5071382;28;20408;-53
2023/08/20 00:25:25;;;;;;;270.10;176.20;;;;;;;;;;5071452;28;20491;-52
2023/08/20 00:27:51;;;;;;;273.67;182.27;;;;;;;;;;5071350;28;20944;-52
2023/08/20 00:30:17;;;;;;;281.17;187.67;;;;;;;;;;5071213;28;20401;-52
2023/08/20 00:32:43;;;;;;;270.43;179.20;;;;;;;;;;5071317;28;20421;-52
2023/08/20 00:35:09;;;;;;;274.33;184.50;;;;;;;;;;5071298;28;20769;-52
2023/08/20 00:37:35;;;;;;;269.63;173.43;;;;;;;;;;5071212;28;20447;-54
2023/08/20 00:40:04;;;;;;;268.43;167.37;;;;;;;;;;5071164;28;20443;-54
2023/08/20 00:42:30;;;;;;;285.30;186.30;;;;;;;;;;5071213;28;20428;-52
2023/08/20 00:44:56;;;;;;;274.60;169.17;;;;;;;;;;5071738;28;20401;-51
2023/08/20 00:47:23;;;;;;;292.77;199.70;;;;;;;;;;5075397;28;20475;-53
2023/08/20 00:49:49;;;;;;;303.37;213.53;;;;;;;;;;5074552;28;20403;-52
2023/08/20 00:52:16;;;;;;;275.80;175.07;;;;;;;;;;5075295;28;20958;-52
2023/08/20 00:54:44;;;;;;;277.13;181.43;;;;;;;;;;5074739;28;20457;-53
2023/08/20 00:57:11;;;;;;;278.20;181.60;;;;;;;;;;5074849;28;20412;-51
2023/08/20 00:59:37;;;;;;;270.23;174.73;;;;;;;;;;5074848;28;20931;-52
2023/08/20 01:02:03;;;;;;;282.57;182.63;;;;;;;;;;5074126;28;20439;-55
2023/08/20 01:04:32;;;;;;;284.47;192.43;;;;;;;;;;5074037;28;20400;-56
2023/08/20 01:07:01;;;;;;;280.97;180.83;;;;;;;;;;5074142;28;20459;-52
2023/08/20 01:09:33;;;;;;;282.37;185.10;;;;;;;;;;5074245;28;20919;-52
2023/08/20 01:12:00;;;;;;;278.50;178.97;;;;;;;;;;5074317;28;20501;-51
2023/08/20 01:14:26;;;;;;;282.57;190.03;;;;;;;;;;5074351;28;20500;-52
2023/08/20 01:16:52;;;;;;;283.30;184.90;;;;;;;;;;5074510;28;21266;-51
2023/08/20 01:19:19;;;;;;;290.13;196.47;;;;;;;;;;5074242;28;20501;-51
2023/08/20 01:21:55;;;;;;;282.97;185.03;;;;;;;;;;5074205;28;20443;-54
2023/08/20 01:24:40;;;;;;;284.40;184.43;;;;;;;;;;5074363;28;20408;-52
2023/08/20 01:27:23;;;;;;;280.63;186.17;;;;;;;;;;5074345;28;20450;-52
2023/08/20 01:29:49;;;;;;;289.93;196.87;;;;;;;;;;5074044;28;20490;-51
2023/08/20 01:32:16;;;;;;;276.63;183.73;;;;;;;;;;5074249;28;20430;-51
2023/08/20 01:34:42;;;;;;;262.50;164.83;;;;;;;;;;5074034;28;20406;-54
2023/08/20 01:37:08;;;;;;;278.50;188.63;;;;;;;;;;5074135;28;20400;-55
2023/08/20 01:39:34;;;;;;;266.53;168.57;;;;;;;;;;5074183;28;20408;-52
2023/08/20 01:42:00;;;;;;;272.43;177.20;;;;;;;;;;5073771;28;20450;-55
2023/08/20 01:44:26;;;;;;;276.87;182.50;;;;;;;;;;5071264;28;20439;-55
2023/08/20 01:46:52;;;;;;;265.97;169.77;;;;;;;;;;5073781;28;20501;-51
2023/08/20 01:49:18;;;;;;;269.97;172.40;;;;;;;;;;5073724;28;20404;-50
2023/08/20 01:51:44;;;;;;;276.90;184.93;;;;;;;;;;5073272;28;20456;-51
2023/08/20 01:54:10;;;;;;;268.73;172.60;;;;;;;;;;5073648;28;20420;-53
2023/08/20 01:56:36;;;;;;;273.70;180.33;;;;;;;;;;5073058;28;20803;-53
2023/08/20 01:59:02;;;;;;;261.83;172.33;;;;;;;;;;5073501;28;20424;-51
2023/08/20 02:01:28;;;;;;;260.30;163.77;;;;;;;;;;5073163;28;20960;-51
2023/08/20 02:03:54;;;;;;;264.40;164.20;;;;;;;;;;5079981;28;20419;-52
2023/08/20 02:06:20;;;;;;;267.63;175.93;;;;;;;;;;5073273;28;20481;-52
2023/08/20 02:08:47;;;;;;;265.10;162.30;;;;;;;;;;5073366;28;20426;-50
2023/08/20 02:11:13;;;;;;;274.73;176.43;;;;;;;;;;5072951;28;20898;-51
2023/08/20 02:13:39;;;;;;;257.47;154.13;;;;;;;;;;5073119;28;20404;-52
2023/08/20 02:16:06;;;;;;;268.90;173.57;;;;;;;;;;5073278;28;20418;-51
2023/08/20 02:18:32;;;;;;;259.77;159.30;;;;;;;;;;5073243;28;20415;-52
2023/08/20 02:20:58;;;;;;;263.50;167.03;;;;;;;;;;5072897;28;20413;-53
2023/08/20 02:23:24;;;;;;;278.97;180.33;;;;;;;;;;5072928;28;20618;-54
2023/08/20 02:25:50;;;;;;;277.83;181.27;;;;;;;;;;5072781;28;20416;-53
2023/08/20 02:28:16;;;;;;;265.03;164.47;;;;;;;;;;5074196;28;20950;-53
2023/08/20 02:30:43;;;;;;;268.13;171.37;;;;;;;;;;5073150;28;20411;-51
2023/08/20 02:33:10;;;;;;;267.20;169.93;;;;;;;;;;5073062;28;20445;-51
2023/08/20 02:35:36;;;;;;;273.50;178.47;;;;;;;;;;5072987;28;20430;-52
2023/08/20 02:38:02;;;;;;;262.57;162.40;;;;;;;;;;5072940;28;20439;-51
2023/08/20 02:40:28;;;;;;;256.50;149.70;;;;;;;;;;5072530;28;20446;-52
2023/08/20 02:42:54;;;;;;;268.83;168.07;;;;;;;;;;5072749;28;20464;-52
2023/08/20 02:45:20;;;;;;;261.13;159.03;;;;;;;;;;5072791;28;20470;-51
2023/08/20 02:47:46;;;;;;;261.10;163.50;;;;;;;;;;5072710;28;20992;-51
2023/08/20 02:50:12;;;;;;;262.90;164.87;;;;;;;;;;5072407;28;20787;-51
2023/08/20 02:52:38;;;;;;;266.23;166.23;;;;;;;;;;5072701;28;20425;-51
2023/08/20 02:55:07;;;;;;;264.20;165.97;;;;;;;;;;5072894;28;20403;-51
2023/08/20 02:57:33;;;;;;;262.27;161.63;;;;;;;;;;5072655;28;20558;-52
2023/08/20 02:59:59;;;;;;;269.40;176.00;;;;;;;;;;5072323;28;20956;-51
2023/08/20 03:02:25;;;;;;;269.77;166.33;;;;;;;;;;5072747;28;20783;-52
2023/08/20 03:04:51;;;;;;;279.47;185.03;;;;;;;;;;5072431;28;20778;-52
2023/08/20 03:07:17;;;;;;;271.23;173.60;;;;;;;;;;5072009;28;20452;-51
2023/08/20 03:09:43;;;;;;;265.63;168.67;;;;;;;;;;5071778;28;20407;-51
2023/08/20 03:12:08;;;;;;;258.30;156.70;;;;;;;;;;5072224;28;20565;-51
2023/08/20 03:14:34;;;;;;;272.63;177.20;;;;;;;;;;5072233;28;20443;-53
2023/08/20 03:17:00;;;;;;;257.33;153.83;;;;;;;;;;5072503;28;20805;-51
2023/08/20 03:19:26;;;;;;;260.77;161.23;;;;;;;;;;5072266;28;20462;-51
2023/08/20 03:21:52;;;;;;;273.83;182.87;;;;;;;;;;5072335;28;20420;-52
2023/08/20 03:24:18;;;;;;;274.83;180.60;;;;;;;;;;5072055;28;20491;-51
2023/08/20 03:26:46;;;;;;;257.07;157.10;;;;;;;;;;5072265;28;20453;-51
2023/08/20 03:29:12;;;;;;;253.00;154.57;;;;;;;;;;5072099;28;20392;-53
2023/08/20 03:31:38;;;;;;;254.93;157.80;;;;;;;;;;5071794;28;20424;-51
2023/08/20 03:34:04;;;;;;;265.80;169.27;;;;;;;;;;5071950;28;20397;-51
2023/08/20 03:36:30;;;;;;;267.07;162.80;;;;;;;;;;5072005;28;20402;-51
2023/08/20 03:38:56;;;;;;;273.60;166.87;;;;;;;;;;5071859;28;20765;-51
2023/08/20 03:41:22;;;;;;;261.77;154.53;;;;;;;;;;5071673;28;20395;-51
2023/08/20 03:43:48;;;;;;;261.83;163.03;;;;;;;;;;5069052;28;20832;-51
2023/08/20 03:46:14;;;;;;;270.93;165.40;;;;;;;;;;5078666;28;20830;-53
2023/08/20 03:48:40;;;;;;;258.97;151.00;;;;;;;;;;5071667;28;20404;-53
2023/08/20 03:51:06;;;;;;;262.67;153.40;;;;;;;;;;5071362;28;20920;-54
2023/08/20 03:53:32;;;;;;;266.00;156.50;;;;;;;;;;5071393;28;20400;-54
2023/08/20 03:55:58;;;;;;;266.50;159.30;;;;;;;;;;5065957;28;20412;-55
2023/08/20 03:58:24;;;;;;;261.50;152.23;;;;;;;;;;5071538;28;20407;-54
2023/08/20 04:00:50;;;;;;;266.87;160.17;;;;;;;;;;5074019;28;20412;-54
2023/08/20 04:03:19;;;;;;;255.67;143.50;;;;;;;;;;5074618;28;20420;-54
2023/08/20 04:05:45;;;;;;;250.87;142.13;;;;;;;;;;5071358;28;20401;-54
2023/08/20 04:08:11;;;;;;;257.23;150.27;;;;;;;;;;5071293;28;20466;-54
2023/08/20 04:10:42;;;;;;;252.90;143.03;;;;;;;;;;5071200;28;20397;-54
2023/08/20 04:13:08;;;;;;;266.27;170.73;;;;;;;;;;5071379;28;20513;-54
2023/08/20 04:15:34;;;;;;;269.53;163.40;;;;;;;;;;5070693;28;20495;-54
2023/08/20 04:18:00;;;;;;;476.93;317.70;;;;;;;;;;5071338;28;20412;-54
2023/08/20 04:20:26;;;;;;;258.73;157.60;;;;;;;;;;5074228;28;20412;-54
2023/08/20 04:22:52;;;;;;;258.40;156.20;;;;;;;;;;5075242;28;20550;-54
2023/08/20 04:25:18;;;;;;;264.60;175.40;;;;;;;;;;5075231;28;20501;-54
2023/08/20 04:27:44;;;;;;;263.60;176.20;;;;;;;;;;5075255;28;20463;-55
2023/08/20 04:30:10;;;;;;;255.80;164.70;;;;;;;;;;5073811;28;20419;-55
2023/08/20 04:32:36;;;;;;;254.40;160.27;;;;;;;;;;5075174;28;20413;-55
2023/08/20 04:35:02;;;;;;;255.73;161.60;;;;;;;;;;5074919;28;20604;-55
2023/08/20 04:37:28;;;;;;;260.00;166.67;;;;;;;;;;5075311;28;20416;-55
2023/08/20 04:39:54;;;;;;;268.43;175.57;;;;;;;;;;5074749;28;20788;-54
2023/08/20 04:42:20;;;;;;;260.77;163.77;;;;;;;;;;5074854;28;20437;-54
2023/08/20 04:44:46;;;;;;;267.53;173.93;;;;;;;;;;5073818;28;20462;-50
2023/08/20 04:47:13;;;;;;;266.10;173.00;;;;;;;;;;5074964;28;20460;-51
2023/08/20 04:49:39;;;;;;;267.43;171.90;;;;;;;;;;5074470;28;20464;-53
2023/08/20 04:52:05;;;;;;;266.70;170.17;;;;;;;;;;5074685;28;20450;-56
2023/08/20 04:54:31;;;;;;;268.53;181.20;;;;;;;;;;5074727;28;20789;-54
2023/08/20 04:56:56;;;;;;;262.60;159.93;;;;;;;;;;5074765;28;20407;-52
2023/08/20 04:59:23;;;;;;;263.20;163.50;;;;;;;;;;5073309;28;20785;-51
2023/08/20 05:01:49;;;;;;;258.07;156.27;;;;;;;;;;5074423;28;20430;-51
2023/08/20 05:04:15;;;;;;;263.07;165.17;;;;;;;;;;5074305;28;20407;-54
2023/08/20 05:06:41;;;;;;;266.13;166.63;;;;;;;;;;5074536;28;20454;-51
2023/08/20 05:09:07;;;;;;;263.13;167.87;;;;;;;;;;5074538;28;20402;-55
2023/08/20 05:11:33;;;;;;;275.60;195.83;;;;;;;;;;5073054;28;20794;-53
2023/08/20 05:13:59;;;;;;;273.30;183.20;;;;;;;;;;5072988;28;20993;-54
2023/08/20 05:16:25;;;;;;;270.87;185.47;;;;;;;;;;5074443;28;20959;-54
2023/08/20 05:18:51;;;;;;;259.53;158.37;;;;;;;;;;5074387;28;20402;-54
2023/08/20 05:21:17;;;;;;;268.93;180.40;;;;;;;;;;5074030;28;20931;-49
2023/08/20 05:23:43;;;;;;;265.70;169.90;;;;;;;;;;5074264;28;20412;-55
2023/08/20 05:26:09;;;;;;;269.63;171.90;;;;;;;;;;5074083;28;20491;-54
2023/08/20 05:28:35;;;;;;;268.23;180.87;;;;;;;;;;5074163;28;20895;-56
2023/08/20 05:31:01;;;;;;;273.70;187.37;;;;;;;;;;5073218;28;20439;-55
2023/08/20 05:33:27;;;;;;;269.17;180.70;;;;;;;;;;5073732;28;20429;-54
2023/08/20 05:35:53;;;;;;;268.83;174.93;;;;;;;;;;5074063;28;20473;-53
2023/08/20 05:38:19;;;;;;;263.03;158.13;;;;;;;;;;5074970;28;20752;-54
2023/08/20 05:40:45;;;;;;;269.50;183.07;;;;;;;;;;5073801;28;20404;-53
2023/08/20 05:43:11;;;;;;;268.73;174.07;;;;;;;;;;5072527;28;20422;-55
2023/08/20 05:45:37;;;;;;;279.63;186.17;;;;;;;;;;5071451;28;20939;-56
2023/08/20 05:48:03;;;;;;;290.50;194.50;;;;;;;;;;5073670;28;20460;-56
2023/08/20 05:50:29;;;;;;;277.17;184.30;;;;;;;;;;5073698;28;20434;-51
2023/08/20 05:52:55;;;;;;;266.70;169.47;;;;;;;;;;5073563;28;20413;-53
2023/08/20 05:55:21;;;;;;;267.70;174.40;;;;;;;;;;5072297;28;20405;-54
2023/08/20 05:57:47;;;;;;;270.77;180.10;;;;;;;;;;5073680;28;20409;-54
2023/08/20 06:00:13;;;;;;;264.67;174.40;;;;;;;;;;5073401;28;20416;-55
2023/08/20 06:02:39;;;;;;;262.70;167.47;;;;;;;;;;5075502;28;20435;-56
2023/08/20 06:05:07;;;;;;;263.67;166.97;;;;;;;;;;5078173;28;20469;-56
2023/08/20 06:07:35;;;;;;;263.07;173.37;;;;;;;;;;5073463;28;20533;-56
2023/08/20 06:10:02;;;;;;;253.17;153.73;;;;;;;;;;5073260;28;20410;-56
2023/08/20 06:12:28;;;;;;;251.20;150.70;;;;;;;;;;5073229;28;20423;-55
2023/08/20 06:14:54;;;;;;;254.27;161.40;;;;;;;;;;5073171;28;20408;-56
2023/08/20 06:17:20;;;;;;;254.53;156.97;;;;;;;;;;5073054;28;20415;-56
2023/08/20 06:19:46;;;;;;;257.27;159.47;;;;;;;;;;5073010;28;20458;-56
2023/08/20 06:22:12;;;;;;;255.40;160.40;;;;;;;;;;5073249;28;20511;-55
2023/08/20 06:24:38;;;;;;;254.40;157.63;;;;;;;;;;5072988;28;20435;-57
2023/08/20 06:27:04;;;;;;;260.47;169.77;;;;;;;;;;5072891;28;20468;-56
2023/08/20 06:29:31;;;;;;;259.50;159.23;;;;;;;;;;5073073;28;20417;-56
2023/08/20 06:31:57;;;;;;;256.80;159.03;;;;;;;;;;5073245;28;20438;-56
2023/08/20 06:34:23;;;;;;;265.83;179.20;;;;;;;;;;5072908;28;20409;-57
2023/08/20 06:36:49;;;;;;;260.60;167.00;;;;;;;;;;5072421;28;20487;-54
2023/08/20 06:39:15;;;;;;;265.30;171.70;;;;;;;;;;5068728;28;20499;-55
2023/08/20 06:41:42;;;;;;;264.80;172.90;;;;;;;;;;5072299;28;20539;-52
2023/08/20 06:44:08;;;;;;;267.33;177.43;;;;;;;;;;5071498;28;20412;-56
2023/08/20 06:46:34;;;;;;;264.80;169.93;;;;;;;;;;5072518;28;20460;-57
2023/08/20 06:48:59;;;;;;;261.43;164.20;;;;;;;;;;5072611;28;20405;-55
2023/08/20 06:51:27;;;;;;;264.97;168.90;;;;;;;;;;5072095;28;20424;-56
2023/08/20 06:53:54;;;;;;;266.07;171.43;;;;;;;;;;5072434;28;20428;-55
2023/08/20 06:56:20;;;;;;;267.20;168.07;;;;;;;;;;5071826;28;20412;-54
2023/08/20 06:58:46;;;;;;;261.83;158.77;;;;;;;;;;5070429;28;20404;-53
2023/08/20 07:01:12;;;;;;;262.27;162.53;;;;;;;;;;5070140;28;20415;-53
2023/08/20 07:03:42;;;;;;;262.93;159.70;;;;;;;;;;5071729;28;20735;-52
2023/08/20 07:06:14;;;;;;;274.10;189.83;;;;;;;;;;5071117;28;20416;-54
2023/08/20 07:08:40;;;;;;;268.93;180.23;;;;;;;;;;5064058;28;20503;-52
2023/08/20 07:11:06;;;;;;;273.83;188.33;;;;;;;;;;5071797;28;20458;-55
2023/08/20 07:13:32;;;;;;;278.50;195.03;;;;;;;;;;5071819;28;20446;-56
2023/08/20 07:15:58;;;;;;;278.10;193.67;;;;;;;;;;5072115;28;20491;-52
2023/08/20 07:18:24;;;;;;;279.97;197.93;;;;;;;;;;5072448;28;20760;-52
2023/08/20 07:20:51;;;;;;;275.07;185.07;;;;;;;;;;5072401;28;20416;-51
2023/08/20 07:23:17;;;;;;;278.17;193.90;;;;;;;;;;5071827;28;20960;-54
2023/08/20 07:25:44;;;;;;;284.93;208.47;;;;;;;;;;5071874;28;20404;-52
2023/08/20 07:28:11;;;;;;;287.53;208.47;;;;;;;;;;5072010;28;20475;-52
2023/08/20 07:30:37;;;;;;;279.07;194.90;;;;;;;;;;5071816;28;20400;-52
2023/08/20 07:33:03;;;;;;;301.47;220.80;;;;;;;;;;5071766;28;20433;-52
2023/08/20 07:35:29;;;;;;;289.87;209.17;;;;;;;;;;5071784;28;20402;-51
2023/08/20 07:37:55;;;;;;;296.33;224.80;;;;;;;;;;5071814;28;20420;-52
2023/08/20 07:40:22;;;;;;;302.43;234.03;;;;;;;;;;5073015;28;20412;-52
2023/08/20 07:42:48;;;;;;;288.73;209.13;;;;;;;;;;5070560;28;20435;-56
2023/08/20 07:45:14;;;;;;;292.77;214.80;;;;;;;;;;5071713;28;20812;-56
2023/08/20 07:47:41;;;;;;;289.03;209.07;;;;;;;;;;5071512;28;20455;-53
2023/08/20 07:50:07;;;;;;;292.97;221.20;;;;;;;;;;5071404;28;20792;-56
2023/08/20 07:52:33;;;;;;;283.37;204.77;;;;;;;;;;5071629;28;20557;-56
2023/08/20 07:54:59;;;;;;;269.37;174.00;;;;;;;;;;5071087;28;20466;-53
2023/08/20 07:57:25;;;;;;;260.20;166.13;;;;;;;;;;5071470;28;20419;-52
2023/08/20 07:59:51;;;;;;;269.10;183.67;;;;;;;;;;5071384;28;20404;-52
2023/08/20 08:02:17;;;;;;;261.40;172.60;;;;;;;;;;5071371;28;20444;-53
2023/08/20 08:04:44;;;;;;;262.10;183.57;;;;;;;;;;5071394;28;20404;-52
2023/08/20 08:07:11;;;;;;;255.17;162.37;;;;;;;;;;5071517;28;20539;-52
2023/08/20 08:09:37;;;;;;;257.67;168.33;;;;;;;;;;5071381;28;20488;-55
2023/08/20 08:12:03;;;;;;;259.13;169.37;;;;;;;;;;5071366;28;20933;-53
2023/08/20 08:14:29;;;;;;;259.97;176.33;;;;;;;;;;5071302;28;20408;-53
2023/08/20 08:16:55;;;;;;;258.23;170.33;;;;;;;;;;5071436;28;20430;-54
2023/08/20 08:19:21;;;;;;;256.43;168.87;;;;;;;;;;5071278;28;20416;-53
2023/08/20 08:21:47;;;;;;;263.57;184.17;;;;;;;;;;5070647;28;20424;-57
2023/08/20 08:24:14;;;;;;;256.90;172.93;;;;;;;;;;5070894;28;20416;-56
2023/08/20 08:26:40;;;;;;;259.07;178.57;;;;;;;;;;5071323;28;20456;-57
2023/08/20 08:29:07;;;;;;;257.70;170.03;;;;;;;;;;5072005;28;20454;-56
2023/08/20 08:31:33;;;;;;;256.50;171.10;;;;;;;;;;5071144;28;20810;-56
2023/08/20 08:33:59;;;;;;;251.43;161.10;;;;;;;;;;5071281;28;20400;-56
2023/08/20 08:36:25;;;;;;;258.03;176.90;;;;;;;;;;5071372;28;20767;-56
2023/08/20 08:38:52;;;;;;;257.77;168.50;;;;;;;;;;5070019;28;20764;-56
2023/08/20 08:41:20;;;;;;;248.30;159.10;;;;;;;;;;5070962;28;20415;-56
2023/08/20 08:43:46;;;;;;;251.70;160.07;;;;;;;;;;5071242;28;20793;-56
2023/08/20 08:46:16;;;;;;;248.43;156.07;;;;;;;;;;5071206;28;20931;-56
2023/08/20 08:48:47;;;;;;;247.07;152.10;;;;;;;;;;5071266;28;20388;-56
2023/08/20 08:51:13;;;;;;;295.80;202.87;;;;;;;;;;5075560;28;20465;-56
2023/08/20 08:53:39;;;;;;;256.07;163.00;;;;;;;;;;5091166;28;20899;-55
2023/08/20 08:56:05;;;;;;;248.63;151.60;;;;;;;;;;5091475;28;20403;-56
2023/08/20 08:58:31;;;;;;;256.87;165.67;;;;;;;;;;5091299;28;20492;-56
2023/08/20 09:00:57;;;;;;;255.00;168.00;;;;;;;;;;5091284;28;20491;-55
2023/08/20 09:03:24;;;;;;;251.43;150.03;;;;;;;;;;5091071;28;20853;-56
2023/08/20 09:05:54;;;;;;;246.53;143.37;;;;;;;;;;5091603;28;20707;-56
2023/08/20 09:08:26;;;;;;;251.70;154.83;;;;;;;;;;5095149;28;20813;-56
2023/08/20 09:10:52;;;;;;;250.33;152.43;;;;;;;;;;5094826;28;20392;-56
2023/08/20 09:13:23;;;;;;;266.00;181.00;;;;;;;;;;5094800;28;20791;-56
2023/08/20 09:15:51;;;;;;;265.67;186.90;;;;;;;;;;5094871;28;20548;-56
2023/08/20 09:18:17;;;;;;;263.57;180.37;;;;;;;;;;5094839;28;20396;-56
2023/08/20 09:20:42;;;;;;;270.67;183.73;;;;;;;;;;5094481;28;20503;-56
2023/08/20 09:23:15;;;;;;;274.93;191.57;;;;;;;;;;5094616;28;20918;-56
2023/08/20 09:25:42;;;;;;;272.90;191.47;;;;;;;;;;5094585;28;20541;-55
2023/08/20 09:28:08;;;;;;;278.40;195.77;;;;;;;;;;5081365;28;20471;-56
2023/08/20 09:30:34;;;;;;;279.67;202.93;;;;;;;;;;5074082;28;20407;-56
2023/08/20 09:33:04;;;;;;;282.83;204.03;;;;;;;;;;5073903;28;20494;-56
2023/08/20 09:35:31;;;;;;;286.03;218.97;;;;;;;;;;5074179;28;20736;-55
2023/08/20 09:38:00;;;;;;;287.10;218.27;;;;;;;;;;5074057;28;20995;-56
2023/08/20 09:40:27;;;;;;;308.30;250.37;;;;;;;;;;5073875;28;20397;-55
2023/08/20 09:42:54;;;;;;;309.03;254.20;;;;;;;;;;5074000;28;20826;-56
2023/08/20 09:45:21;;;;;;;310.93;258.97;;;;;;;;;;5073952;28;20837;-54
2023/08/20 09:47:48;;;;;;;307.50;244.33;;;;;;;;;;5073723;28;20460;-56
2023/08/20 09:50:17;;;;;;;301.87;239.13;;;;;;;;;;5073583;28;20427;-55
2023/08/20 09:52:55;;;;;;;309.77;265.83;;;;;;;;;;5091273;28;20427;-55
2023/08/20 09:55:22;;;;;;;298.00;235.87;;;;;;;;;;5094002;28;20822;-56
2023/08/20 09:57:49;;;;;;;291.67;221.70;;;;;;;;;;5094025;28;20796;-55
2023/08/20 10:00:15;;;;;;;302.13;241.70;;;;;;;;;;5093635;28;20454;-55
2023/08/20 10:02:43;;;;;;;300.20;240.93;;;;;;;;;;5093815;28;20422;-54
2023/08/20 10:05:10;;;;;;;300.70;253.57;;;;;;;;;;5093808;28;20404;-54
2023/08/20 10:07:36;;;;;;;307.93;253.93;;;;;;;;;;5088727;28;20868;-54
2023/08/20 10:10:04;;;;;;;295.00;239.07;;;;;;;;;;5077797;28;20498;-54
2023/08/20 10:12:30;;;;;;;297.33;264.57;;;;;;;;;;5074827;28;20798;-55
2023/08/20 10:14:57;;;;;;;281.87;233.23;;;;;;;;;;5085110;28;20447;-55
2023/08/20 10:17:23;;;;;;;292.03;248.60;;;;;;;;;;5080735;28;20415;-55
2023/08/20 10:19:49;;;;;;;280.00;215.77;;;;;;;;;;5072975;28;20421;-55
2023/08/20 10:22:15;;;;;;;287.20;222.83;;;;;;;;;;5073268;28;20436;-55
2023/08/20 10:24:52;;;;;;;284.00;218.13;;;;;;;;;;5073151;28;20412;-53
2023/08/20 10:27:26;;;;;;;280.20;214.33;;;;;;;;;;5084610;28;20592;-52
2023/08/20 10:29:54;;;;;;;284.73;217.17;;;;;;;;;;5072770;28;20393;-53
2023/08/20 10:32:20;;;;;;;278.10;201.33;;;;;;;;;;5053058;28;20482;-52
2023/08/20 10:34:52;;;;;;;271.20;190.00;;;;;;;;;;5069502;28;20477;-53
2023/08/20 10:37:27;;;;;;;270.37;194.07;;;;;;;;;;5072814;28;20413;-51
2023/08/20 10:39:57;;;;;;;286.63;229.67;;;;;;;;;;5072696;28;20400;-51
2023/08/20 10:42:26;;;;;;;276.93;210.47;;;;;;;;;;5072675;28;20425;-51
2023/08/20 10:45:08;;;;;;;278.27;211.07;;;;;;;;;;5072548;28;20892;-52
2023/08/20 10:47:48;;;;;;;280.57;208.50;;;;;;;;;;5065611;28;20469;-51
2023/08/20 10:50:19;;;;;;;287.17;220.27;;;;;;;;;;5052307;28;20425;-55
2023/08/20 10:52:50;;;;;;;291.73;230.57;;;;;;;;;;5052352;28;20433;-51
2023/08/20 10:55:16;;;;;;;287.97;220.00;;;;;;;;;;5052754;28;20413;-52
2023/08/20 10:57:42;;;;;;;282.03;216.10;;;;;;;;;;5052612;28;20419;-52
2023/08/20 11:00:11;;;;;;;284.97;241.93;;;;;;;;;;5070607;28;20408;-52
2023/08/20 11:02:41;;;;;;;283.60;220.93;;;;;;;;;;5075786;28;20706;-52
2023/08/20 11:05:17;;;;;;;292.43;222.40;;;;;;;;;;5079092;28;20483;-52
2023/08/20 11:07:46;;;;;;;293.43;231.73;;;;;;;;;;5072002;28;20456;-51
2023/08/20 11:10:13;;;;;;;287.90;222.43;;;;;;;;;;5063227;28;20445;-51
2023/08/20 11:12:41;;;;;;;285.17;224.47;;;;;;;;;;5058267;28;20868;-52
2023/08/20 11:15:08;;;;;;;283.43;212.50;;;;;;;;;;5072060;28;20817;-51
2023/08/20 11:17:34;;;;;;;295.20;245.27;;;;;;;;;;5071637;28;20427;-53
2023/08/20 11:20:00;;;;;;;284.90;223.03;;;;;;;;;;5051985;28;20902;-52
2023/08/20 11:22:26;;;;;;;289.53;217.73;;;;;;;;;;5069126;28;20974;-52
2023/08/20 11:24:52;;;;;;;296.03;238.80;;;;;;;;;;5057598;28;20432;-52
2023/08/20 11:27:20;;;;;;;300.57;252.53;;;;;;;;;;5063252;28;20464;-51
2023/08/20 11:29:46;;;;;;;313.83;274.93;;;;;;;;;;5071366;28;20409;-52
2023/08/20 11:32:12;;;;;;;291.30;233.10;;;;;;;;;;5065139;28;20450;-52
2023/08/20 11:34:39;;;;;;;287.83;223.07;;;;;;;;;;5054188;28;20402;-51
2023/08/20 11:37:05;;;;;;;279.37;207.93;;;;;;;;;;5072156;28;20781;-51
2023/08/20 11:39:31;;;;;;;278.57;201.93;;;;;;;;;;5071903;28;20413;-51
2023/08/20 11:41:59;;;;;;;271.73;193.27;;;;;;;;;;5071444;28;20443;-51
2023/08/20 11:44:26;;;;;;;276.70;194.87;;;;;;;;;;5071525;28;20927;-51
2023/08/20 11:46:52;;;;;;;281.43;213.90;;;;;;;;;;5071585;28;20456;-52
2023/08/20 11:49:26;;;;;;;274.37;206.50;;;;;;;;;;5071594;28;20404;-52
2023/08/20 11:51:52;;;;;;;280.00;212.40;;;;;;;;;;5071390;28;20446;-52
2023/08/20 11:54:19;;;;;;;279.43;205.07;;;;;;;;;;5071750;28;20404;-51
2023/08/20 11:56:46;;;;;;;272.13;194.33;;;;;;;;;;5071793;28;20409;-52
2023/08/20 11:59:12;;;;;;;280.03;216.37;;;;;;;;;;5072215;28;20396;-52
2023/08/20 12:01:38;;;;;;;268.30;188.50;;;;;;;;;;5071396;28;20420;-53
2023/08/20 12:04:05;;;;;;;274.37;208.17;;;;;;;;;;5071501;28;20765;-53
2023/08/20 12:06:31;;;;;;;275.07;209.63;;;;;;;;;;5071742;28;20448;-53
2023/08/20 12:08:57;;;;;;;283.47;225.60;;;;;;;;;;5071854;28;20409;-53
2023/08/20 12:11:28;;;;;;;273.67;213.57;;;;;;;;;;5071389;28;20397;-52
2023/08/20 12:13:54;;;;;;;278.90;215.13;;;;;;;;;;5071554;28;20402;-51
2023/08/20 12:16:22;;;;;;;274.50;212.67;;;;;;;;;;5071616;28;20401;-52
2023/08/20 12:18:48;;;;;;;269.33;185.97;;;;;;;;;;5071674;28;20779;-53
2023/08/20 12:21:14;;;;;;;273.83;196.73;;;;;;;;;;5071306;28;20404;-52
2023/08/20 12:23:40;;;;;;;270.43;194.33;;;;;;;;;;5071483;28;20397;-53
2023/08/20 12:26:07;;;;;;;272.63;195.67;;;;;;;;;;5071559;28;20396;-53
2023/08/20 12:28:33;;;;;;;278.47;203.73;;;;;;;;;;5071455;28;20447;-53
2023/08/20 12:30:59;;;;;;;292.27;230.63;;;;;;;;;;5071208;28;20433;-52
2023/08/20 12:33:25;;;;;;;290.47;223.40;;;;;;;;;;5071226;28;20422;-52
2023/08/20 12:35:54;;;;;;;291.63;230.53;;;;;;;;;;5071642;28;20838;-52
2023/08/20 12:38:20;;;;;;;390.07;309.13;;;;;;;;;;5071330;28;20483;-53
2023/08/20 12:40:47;;;;;;;384.10;311.90;;;;;;;;;;5071796;28;20403;-52
2023/08/20 12:43:14;;;;;;;378.93;296.20;;;;;;;;;;5075186;28;20497;-52
2023/08/20 12:45:40;;;;;;;383.27;313.50;;;;;;;;;;5075026;28;20896;-53
2023/08/20 12:48:09;;;;;;;380.57;312.73;;;;;;;;;;5075039;28;20551;-51
2023/08/20 12:50:36;;;;;;;364.13;282.57;;;;;;;;;;5074759;28;20412;-51
2023/08/20 12:53:01;;;;;;;277.33;209.03;;;;;;;;;;5095386;28;20415;-52
2023/08/20 12:55:27;;;;;;;263.27;178.03;;;;;;;;;;5095230;28;20407;-51
2023/08/20 12:57:54;;;;;;;264.53;186.50;;;;;;;;;;5095234;28;20406;-53
2023/08/20 13:00:24;;;;;;;263.37;181.57;;;;;;;;;;5094896;28;20883;-51
2023/08/20 13:02:50;;;;;;;272.90;194.83;;;;;;;;;;5095033;28;20426;-52
2023/08/20 13:05:17;;;;;;;272.57;192.80;;;;;;;;;;5095095;28;20410;-52
2023/08/20 13:07:43;;;;;;;287.70;223.73;;;;;;;;;;5094970;28;20824;-52
2023/08/20 13:10:09;;;;;;;285.77;215.87;;;;;;;;;;5094817;28;20399;-51
2023/08/20 13:12:36;;;;;;;296.93;250.73;;;;;;;;;;5094841;28;20488;-51
2023/08/20 13:15:03;;;;;;;289.33;224.47;;;;;;;;;;5094831;28;20400;-51
2023/08/20 13:17:29;;;;;;;297.37;243.23;;;;;;;;;;5095052;28;20487;-53
2023/08/20 13:19:55;;;;;;;447.37;359.80;;;;;;;;;;5094581;28;20400;-52
2023/08/20 13:22:22;;;;;;;437.67;356.63;;;;;;;;;;5094715;28;20419;-52
2023/08/20 13:24:48;;;;;;;438.20;359.20;;;;;;;;;;5094681;28;20396;-52
2023/08/20 13:27:14;;;;;;;428.33;334.27;;;;;;;;;;5095069;28;20787;-53
2023/08/20 13:29:41;;;;;;;429.50;328.73;;;;;;;;;;5094306;28;20432;-53
2023/08/20 13:32:07;;;;;;;431.77;331.37;;;;;;;;;;5094656;28;20435;-52
2023/08/20 13:34:33;;;;;;;421.53;312.93;;;;;;;;;;5094422;28;20399;-54
2023/08/20 13:36:59;;;;;;;422.73;317.37;;;;;;;;;;5094494;28;20400;-52
2023/08/20 13:39:25;;;;;;;420.97;299.30;;;;;;;;;;5094316;28;20410;-52
2023/08/20 13:41:51;;;;;;;416.57;312.13;;;;;;;;;;5094072;28;20423;-52
2023/08/20 13:44:17;;;;;;;413.17;308.27;;;;;;;;;;5094272;28;20883;-53
2023/08/20 13:46:43;;;;;;;408.03;292.23;;;;;;;;;;5094125;28;20454;-52
2023/08/20 13:49:09;;;;;;;408.00;301.90;;;;;;;;;;5094267;28;20955;-54